Terminal Aerodrome Forecast
Issued by NWS

Home | Current Version | Previous Version | Text Only | Print | Product List | Glossary On
Versions: 1 2 3 4 5 6 7 8 9 10 11 12
026
FTUS46 KMTR 172345
TAFMRY
TAF
KMRY 172345Z 1800/1824 28006KT P6SM BKN200
     FM180200 29005KT P6SM FEW012 BKN200
     FM180500 24004KT P6SM BKN010 OVC150
     FM181500 12008KT 6SM -DZ BR OVC100
     FM181800 17008KT P6SM -RA OVC050=

USA.gov is the U.S. government's official web portal to all federal, state and local government web resources and services.